Time;durP1;ratioP1;P1;durP2;ratioP2;P2;SDS_P1;SDS_P2;PMS_P1;PMS_P2;Temp;Humidity;BMP_temperature;BMP_pressure;BME280_temperature;BME280_humidity;BME280_pressure;Samples;Min_cycle;Max_cycle;Signal;HPM_P1;HPM_P2
2022/10/29 00:00:37;;;;;;;3.40;1.55;;;;;;;7.60;100.00;101191.91;5011913;28;20040;-52
2022/10/29 00:03:02;;;;;;;0.90;0.80;;;;;;;7.62;100.00;101185.50;5013717;28;20037;-50
2022/10/29 00:05:27;;;;;;;4.15;1.42;;;;;;;7.64;100.00;101180.88;5015811;28;20057;-50
2022/10/29 00:07:53;;;;;;;3.58;0.95;;;;;;;7.66;100.00;101175.44;5015487;28;20033;-50
2022/10/29 00:10:18;;;;;;;2.92;0.80;;;;;;;7.73;100.00;101176.47;5013713;28;20094;-52
2022/10/29 00:12:43;;;;;;;1.73;1.15;;;;;;;7.79;100.00;101175.84;5009192;28;20029;-49
2022/10/29 00:15:09;;;;;;;3.95;0.50;;;;;;;7.80;100.00;101174.06;5013342;28;20037;-50
2022/10/29 00:17:35;;;;;;;4.85;2.20;;;;;;;7.76;100.00;101165.59;5012094;28;20033;-48
2022/10/29 00:20:00;;;;;;;2.45;0.98;;;;;;;7.73;100.00;101165.09;5014484;28;20455;-48
2022/10/29 00:22:25;;;;;;;5.97;2.00;;;;;;;7.72;100.00;101158.16;5007896;28;20071;-51
2022/10/29 00:24:51;;;;;;;2.20;0.63;;;;;;;7.73;100.00;101152.72;5008774;28;20025;-49
2022/10/29 00:27:16;;;;;;;5.47;2.35;;;;;;;7.75;100.00;101144.66;5004852;28;20029;-50
2022/10/29 00:29:42;;;;;;;2.65;0.40;;;;;;;7.71;100.00;101145.94;5014396;28;20060;-51
2022/10/29 00:32:08;;;;;;;3.10;0.88;;;;;;;7.67;100.00;101149.88;5012315;28;20041;-50
2022/10/29 00:34:35;;;;;;;2.30;0.40;;;;;;;7.67;100.00;101136.66;5009795;28;20040;-53
2022/10/29 00:37:01;;;;;;;4.25;0.85;;;;;;;7.62;100.00;101139.81;5013609;28;20025;-51
2022/10/29 00:39:28;;;;;;;2.88;0.88;;;;;;;7.66;100.00;101143.75;5013575;28;20430;-52
2022/10/29 00:41:54;;;;;;;1.27;0.73;;;;;;;7.68;100.00;101140.97;5017010;28;20036;-50
2022/10/29 00:44:19;;;;;;;3.65;0.68;;;;;;;7.69;100.00;101132.06;5015938;28;20512;-51
2022/10/29 00:46:51;;;;;;;2.90;0.75;;;;;;;7.71;100.00;101141.50;5013732;28;20043;-49
2022/10/29 00:49:18;;;;;;;6.45;2.25;;;;;;;7.68;100.00;101144.44;5017889;28;20029;-51
2022/10/29 00:51:46;;;;;;;4.88;1.55;;;;;;;7.69;100.00;101150.53;5016606;28;20037;-51
2022/10/29 00:54:13;;;;;;;1.48;0.57;;;;;;;7.64;100.00;101156.28;5018313;28;20029;-49
2022/10/29 00:56:47;;;;;;;2.20;1.00;;;;;;;7.60;100.00;101155.78;5017913;28;20580;-50
2022/10/29 00:59:15;;;;;;;3.75;0.73;;;;;;;7.65;100.00;101153.50;5015692;28;20104;-50
2022/10/29 01:01:42;;;;;;;3.35;1.00;;;;;;;7.71;100.00;101135.38;5018353;28;20169;-48
2022/10/29 01:04:09;;;;;;;2.60;0.75;;;;;;;7.76;100.00;101133.09;5017184;28;20469;-52
2022/10/29 01:06:35;;;;;;;3.35;1.08;;;;;;;7.84;100.00;101135.78;5012665;28;20029;-50
2022/10/29 01:09:00;;;;;;;3.75;0.85;;;;;;;7.84;100.00;101133.16;5017963;28;20391;-50
2022/10/29 01:11:46;;;;;;;2.83;0.68;;;;;;;7.94;100.00;101125.94;5016954;28;20125;-53
2022/10/29 01:14:42;;;;;;;8.80;1.05;;;;;;;7.98;100.00;101114.09;5018718;28;20033;-51
2022/10/29 01:17:36;;;;;;;4.97;1.25;;;;;;;8.03;100.00;101119.72;5019387;28;20493;-51
2022/10/29 01:20:07;;;;;;;3.92;0.93;;;;;;;8.13;100.00;101113.47;5015936;28;20029;-53
2022/10/29 01:22:46;;;;;;;3.65;1.27;;;;;;;8.25;100.00;101105.09;5017750;28;20045;-53
2022/10/29 01:25:43;;;;;;;2.22;0.43;;;;;;;8.35;100.00;101096.22;5014838;28;20209;-50
2022/10/29 01:28:44;;;;;;;2.47;1.38;;;;;;;8.42;100.00;101078.75;5016936;28;20060;-52
2022/10/29 01:31:32;;;;;;;5.72;1.90;;;;;;;8.47;100.00;101077.28;5005235;28;20045;-50
2022/10/29 01:34:21;;;;;;;1.95;1.02;;;;;;;8.55;100.00;101073.00;5014808;28;20124;-52
2022/10/29 01:36:57;;;;;;;9.25;2.33;;;;;;;8.67;100.00;101075.16;5013331;28;20054;-51
2022/10/29 01:39:30;;;;;;;4.53;1.92;;;;;;;8.78;100.00;101084.59;5014447;28;20044;-50
2022/10/29 01:42:15;;;;;;;6.95;1.20;;;;;;;8.88;100.00;101087.91;5017150;28;20041;-52
2022/10/29 01:44:52;;;;;;;4.20;1.95;;;;;;;9.00;100.00;101085.75;5015930;28;20409;-50
2022/10/29 01:47:19;;;;;;;2.92;1.05;;;;;;;9.06;100.00;101078.94;5016825;28;20124;-51
2022/10/29 01:49:50;;;;;;;4.28;1.80;;;;;;;9.11;100.00;101084.56;5018291;28;20029;-49
2022/10/29 01:52:19;;;;;;;5.65;2.47;;;;;;;9.16;100.00;101082.25;5017914;28;20038;-50
2022/10/29 01:54:45;;;;;;;1.80;1.42;;;;;;;9.42;100.00;101089.97;5016756;28;20033;-50
2022/10/29 01:57:37;;;;;;;5.28;1.70;;;;;;;9.77;100.00;101085.28;5018709;28;20025;-53
2022/10/29 02:00:09;;;;;;;2.83;1.27;;;;;;;9.98;100.00;101084.69;5021769;28;20056;-52
2022/10/29 02:02:40;;;;;;;4.45;0.63;;;;;;;10.13;100.00;101082.16;5016202;28;20048;-49
2022/10/29 02:05:26;;;;;;;9.60;1.55;;;;;;;10.31;100.00;101080.09;5019222;28;21755;-49
2022/10/29 02:08:07;;;;;;;4.03;1.55;;;;;;;10.41;100.00;101079.88;5019946;28;20112;-49
2022/10/29 02:10:55;;;;;;;2.15;1.45;;;;;;;10.44;100.00;101080.34;5017322;28;20037;-52
2022/10/29 02:13:29;;;;;;;10.40;1.17;;;;;;;10.48;100.00;101073.69;5017504;28;20044;-55
2022/10/29 02:15:57;;;;;;;6.50;1.80;;;;;;;10.50;100.00;101073.50;5018410;28;20032;-49
2022/10/29 02:18:23;;;;;;;6.70;0.90;;;;;;;10.51;100.00;101072.50;5015689;28;20041;-52
2022/10/29 02:20:49;;;;;;;4.25;1.40;;;;;;;10.53;100.00;101059.88;5016134;28;20057;-55
2022/10/29 02:23:15;;;;;;;7.63;1.45;;;;;;;10.57;100.00;101053.25;5022848;28;20029;-51
2022/10/29 02:25:40;;;;;;;10.13;1.00;;;;;;;10.59;100.00;101045.94;5019120;28;24078;-52
2022/10/29 02:28:06;;;;;;;2.47;0.77;;;;;;;10.60;100.00;101042.28;5020345;28;20498;-49
2022/10/29 02:30:31;;;;;;;6.80;1.90;;;;;;;10.63;100.00;101036.59;5022687;28;20442;-55
2022/10/29 02:32:56;;;;;;;9.18;2.00;;;;;;;10.66;100.00;101025.66;5020476;28;20034;-54
2022/10/29 02:35:22;;;;;;;6.57;1.65;;;;;;;10.67;100.00;101016.69;5021039;28;20179;-54
2022/10/29 02:37:47;;;;;;;9.88;2.15;;;;;;;10.67;100.00;101016.69;5020011;28;20056;-56
2022/10/29 02:40:13;;;;;;;11.60;2.72;;;;;;;10.66;100.00;101016.88;5019827;28;20117;-58
2022/10/29 02:42:38;;;;;;;4.43;1.98;;;;;;;10.70;100.00;101011.03;5015429;28;20079;-57
2022/10/29 02:45:04;;;;;;;2.40;0.40;;;;;;;10.73;100.00;101006.38;5019336;28;20182;-58
2022/10/29 02:47:29;;;;;;;6.68;1.38;;;;;;;10.74;100.00;100997.41;5018968;28;20247;-55
2022/10/29 02:49:55;;;;;;;5.85;1.45;;;;;;;10.78;100.00;100990.75;5014254;28;20033;-58
2022/10/29 02:52:20;;;;;;;10.82;1.65;;;;;;;10.77;100.00;100992.59;5020063;28;20090;-57
2022/10/29 02:54:46;;;;;;;4.53;1.42;;;;;;;10.79;100.00;100985.28;5015665;28;20618;-58
2022/10/29 02:57:11;;;;;;;9.05;1.65;;;;;;;10.80;100.00;100978.13;5017153;28;20064;-58
2022/10/29 02:59:36;;;;;;;2.50;1.05;;;;;;;10.85;100.00;100971.28;5020072;28;20044;-56
2022/10/29 03:02:02;;;;;;;6.15;1.33;;;;;;;10.87;100.00;100969.28;5017486;28;20032;-55
2022/10/29 03:04:27;;;;;;;4.40;0.50;;;;;;;10.93;100.00;100965.06;5016045;28;20391;-57
2022/10/29 03:06:52;;;;;;;5.45;1.55;;;;;;;10.91;100.00;100953.81;5015260;28;20041;-59
2022/10/29 03:09:18;;;;;;;6.95;1.65;;;;;;;10.97;100.00;100953.09;5017730;28;20414;-58
2022/10/29 03:11:43;;;;;;;1.83;0.75;;;;;;;10.98;100.00;100949.44;5020831;28;20126;-57
2022/10/29 03:14:08;;;;;;;4.82;2.03;;;;;;;10.95;100.00;100960.41;5014857;28;20040;-57
2022/10/29 03:16:34;;;;;;;4.32;1.23;;;;;;;10.97;100.00;100963.72;5019578;28;20074;-59
2022/10/29 03:18:59;;;;;;;7.03;1.65;;;;;;;11.01;100.00;100970.28;5012679;28;20021;-59
2022/10/29 03:21:25;;;;;;;7.30;2.15;;;;;;;11.07;100.00;100966.09;5021034;28;20052;-59
2022/10/29 03:23:50;;;;;;;5.20;0.60;;;;;;;11.08;100.00;100965.09;5017438;28;20087;-56
2022/10/29 03:26:15;;;;;;;5.93;0.80;;;;;;;11.07;100.00;100958.94;5019853;28;20664;-61
2022/10/29 03:28:41;;;;;;;7.80;2.42;;;;;;;11.10;100.00;100957.75;5020961;28;20053;-60
2022/10/29 03:31:06;;;;;;;4.10;0.57;;;;;;;11.10;100.00;100945.31;5021886;28;20548;-60
2022/10/29 03:33:31;;;;;;;5.47;1.50;;;;;;;11.19;100.00;100947.88;5018152;28;21022;-60
2022/10/29 03:35:57;;;;;;;6.55;0.80;;;;;;;11.23;100.00;100943.84;5020001;28;20037;-60
2022/10/29 03:38:23;;;;;;;2.75;0.38;;;;;;;11.17;100.00;100939.28;5018496;28;20039;-59
2022/10/29 03:40:48;;;;;;;7.72;1.17;;;;;;;11.14;100.00;100933.31;5016871;28;20029;-61
2022/10/29 03:43:14;;;;;;;4.47;0.60;;;;;;;11.10;100.00;100940.03;5016888;28;20295;-61
2022/10/29 03:45:39;;;;;;;3.65;0.57;;;;;;;11.13;100.00;100931.69;5017138;28;20334;-61
2022/10/29 03:48:05;;;;;;;5.25;0.68;;;;;;;11.15;100.00;100947.41;5015323;28;20034;-61
2022/10/29 03:50:30;;;;;;;3.83;1.00;;;;;;;11.09;100.00;100945.50;5015451;28;20121;-60
2022/10/29 03:52:55;;;;;;;3.75;0.43;;;;;;;11.08;100.00;100927.94;5015355;28;20080;-61
2022/10/29 03:55:21;;;;;;;5.07;1.02;;;;;;;11.07;100.00;100921.78;5016816;28;20518;-60
2022/10/29 03:57:46;;;;;;;8.13;0.65;;;;;;;11.08;100.00;100910.19;5016050;28;20033;-60
2022/10/29 04:00:12;;;;;;;5.03;1.10;;;;;;;11.05;100.00;100902.59;5017257;28;20648;-60
2022/10/29 04:02:37;;;;;;;4.13;0.98;;;;;;;11.02;100.00;100889.69;5013640;28;20036;-59
2022/10/29 04:05:03;;;;;;;1.17;0.85;;;;;;;11.08;100.00;100890.78;5014814;28;20486;-59
2022/10/29 04:07:28;;;;;;;4.65;0.90;;;;;;;11.07;100.00;100881.97;5015310;28;20740;-60
2022/10/29 04:09:53;;;;;;;1.48;0.30;;;;;;;11.04;100.00;100879.69;5017552;28;20029;-61
2022/10/29 04:12:19;;;;;;;4.22;0.70;;;;;;;11.09;100.00;100882.63;5015286;28;20033;-60
2022/10/29 04:14:44;;;;;;;4.38;0.93;;;;;;;11.20;100.00;100880.50;5013183;28;20043;-60
2022/10/29 04:17:11;;;;;;;7.53;1.23;;;;;;;11.30;100.00;100875.75;5018257;28;20119;-60
2022/10/29 04:19:36;;;;;;;3.65;1.17;;;;;;;11.34;100.00;100877.03;5015951;28;23931;-61
2022/10/29 04:22:02;;;;;;;7.35;0.85;;;;;;;11.36;100.00;100861.75;5016766;28;20032;-60
2022/10/29 04:24:27;;;;;;;8.73;2.30;;;;;;;11.36;100.00;100856.44;5019609;28;20363;-60
2022/10/29 04:26:52;;;;;;;8.60;0.75;;;;;;;11.39;100.00;100856.03;5017755;28;20354;-60
2022/10/29 04:29:18;;;;;;;2.55;0.80;;;;;;;11.41;100.00;100843.41;5020083;28;20133;-60
2022/10/29 04:31:43;;;;;;;6.63;1.40;;;;;;;11.43;100.00;100844.03;5018889;28;20128;-60
2022/10/29 04:34:08;;;;;;;5.57;0.73;;;;;;;11.48;100.00;100838.16;5016632;28;20156;-60
2022/10/29 04:36:34;;;;;;;2.78;1.00;;;;;;;11.52;100.00;100824.31;5018985;28;20255;-60
2022/10/29 04:38:59;;;;;;;5.38;0.55;;;;;;;11.49;100.00;100827.34;5020692;28;20482;-61
2022/10/29 04:41:24;;;;;;;5.00;1.35;;;;;;;11.46;100.00;100818.94;5019386;28;20743;-61
2022/10/29 04:43:50;;;;;;;7.28;1.05;;;;;;;11.46;100.00;100810.97;5020052;28;20029;-60
2022/10/29 04:46:15;;;;;;;4.55;0.90;;;;;;;11.48;100.00;100808.94;5022792;28;20621;-60
2022/10/29 04:48:40;;;;;;;5.53;0.90;;;;;;;11.50;100.00;100789.16;5016215;28;20030;-60
2022/10/29 04:51:06;;;;;;;4.90;1.35;;;;;;;11.51;100.00;100785.50;5015380;28;20036;-59
2022/10/29 04:53:31;;;;;;;9.50;1.27;;;;;;;11.52;100.00;100794.28;5015535;28;20390;-57
2022/10/29 04:56:00;;;;;;;5.18;0.93;;;;;;;11.53;100.00;100791.44;5015422;28;20814;-61
2022/10/29 04:58:27;;;;;;;3.65;1.17;;;;;;;11.52;100.00;100783.69;5013576;28;20025;-59
2022/10/29 05:00:52;;;;;;;1.05;0.30;;;;;;;11.52;100.00;100775.72;5014583;28;20061;-60
2022/10/29 05:03:18;;;;;;;3.97;0.50;;;;;;;11.53;100.00;100772.03;5015962;28;20143;-60
2022/10/29 05:05:43;;;;;;;2.90;1.45;;;;;;;11.51;100.00;100771.38;5016002;28;20029;-59
2022/10/29 05:08:10;;;;;;;4.00;1.27;;;;;;;11.52;100.00;100752.63;5015445;28;20037;-59
2022/10/29 05:10:38;;;;;;;6.72;2.13;;;;;;;11.50;100.00;100754.66;5012889;28;20032;-59
2022/10/29 05:13:10;;;;;;;9.73;1.15;;;;;;;11.46;100.00;100753.41;5013759;28;20151;-58
2022/10/29 05:15:37;;;;;;;5.72;1.10;;;;;;;11.46;100.00;100749.91;5015400;28;20432;-58
2022/10/29 05:18:03;;;;;;;4.30;1.13;;;;;;;11.48;100.00;100748.69;5012012;28;20026;-59
2022/10/29 05:20:28;;;;;;;6.70;0.85;;;;;;;11.47;100.00;100730.31;5015474;28;20045;-59
2022/10/29 05:22:59;;;;;;;6.18;0.73;;;;;;;11.50;100.00;100741.38;5015231;28;20033;-56
2022/10/29 05:25:24;;;;;;;5.28;0.52;;;;;;;11.50;100.00;100728.09;5018342;28;20045;-59
2022/10/29 05:27:50;;;;;;;5.28;1.40;;;;;;;11.56;100.00;100723.84;5018039;28;20048;-59
2022/10/29 05:30:15;;;;;;;7.18;2.05;;;;;;;11.61;100.00;100715.31;5018687;28;20022;-58
2022/10/29 05:32:40;;;;;;;1.85;1.00;;;;;;;11.54;100.00;100710.78;5014732;28;20596;-58
2022/10/29 05:35:06;;;;;;;6.10;1.48;;;;;;;11.58;100.00;100703.22;5016464;28;20026;-58
2022/10/29 05:37:31;;;;;;;5.85;1.77;;;;;;;11.61;100.00;100704.69;5020150;28;20036;-57
2022/10/29 05:39:57;;;;;;;4.25;1.00;;;;;;;11.62;100.00;100707.16;5021443;28;20034;-59
2022/10/29 05:42:22;;;;;;;3.05;0.65;;;;;;;11.62;100.00;100717.78;5018224;28;20112;-59
2022/10/29 05:44:48;;;;;;;5.70;1.35;;;;;;;11.67;100.00;100703.91;5019939;28;20033;-59
2022/10/29 05:47:13;;;;;;;8.60;2.03;;;;;;;11.68;100.00;100716.19;5019831;28;20025;-57
2022/10/29 05:49:38;;;;;;;3.40;0.43;;;;;;;11.68;100.00;100713.53;5020663;28;20087;-57
2022/10/29 05:52:04;;;;;;;7.88;0.73;;;;;;;11.70;100.00;100707.00;5018056;28;20168;-58
2022/10/29 05:54:29;;;;;;;4.05;0.88;;;;;;;11.74;100.00;100710.91;5019509;28;20037;-58
2022/10/29 05:56:56;;;;;;;2.28;1.02;;;;;;;11.73;100.00;100700.50;5019365;28;20025;-59
2022/10/29 05:59:22;;;;;;;5.75;0.70;;;;;;;11.72;100.00;100705.00;5020382;28;20120;-56
2022/10/29 06:01:47;;;;;;;5.28;1.33;;;;;;;11.70;100.00;100716.81;5019874;28;20039;-58
2022/10/29 06:04:12;;;;;;;6.40;1.63;;;;;;;11.69;100.00;100715.97;5017832;28;20025;-57
2022/10/29 06:06:37;;;;;;;4.47;0.77;;;;;;;11.67;100.00;100711.88;5019329;28;20025;-57
2022/10/29 06:09:03;;;;;;;7.50;1.65;;;;;;;11.63;100.00;100702.66;5016694;28;20036;-58
2022/10/29 06:11:28;;;;;;;14.15;1.25;;;;;;;11.57;100.00;100712.22;5015214;28;20063;-57
2022/10/29 06:13:55;;;;;;;2.10;1.33;;;;;;;11.56;100.00;100713.22;5016151;28;20037;-59
2022/10/29 06:16:20;;;;;;;10.98;1.65;;;;;;;11.55;100.00;100711.59;5015719;28;20045;-58
2022/10/29 06:18:46;;;;;;;2.17;0.75;;;;;;;11.56;100.00;100707.91;5016861;28;20183;-56
2022/10/29 06:21:11;;;;;;;9.48;1.80;;;;;;;11.57;100.00;100709.56;5013667;28;20561;-56
2022/10/29 06:23:36;;;;;;;4.85;1.13;;;;;;;11.62;100.00;100714.31;5019022;28;20351;-55
2022/10/29 06:26:02;;;;;;;3.65;1.33;;;;;;;11.61;100.00;100700.19;5020290;28;20037;-57
2022/10/29 06:28:27;;;;;;;13.25;2.58;;;;;;;11.62;100.00;100693.06;5019499;28;20052;-55
2022/10/29 06:30:53;;;;;;;5.40;1.80;;;;;;;11.58;100.00;100700.56;5020285;28;20036;-58
2022/10/29 06:33:19;;;;;;;3.15;1.80;;;;;;;11.55;100.00;100700.97;5019420;28;20043;-55
2022/10/29 06:35:45;;;;;;;2.10;1.73;;;;;;;11.53;100.00;100698.50;5018109;28;20503;-58
2022/10/29 06:38:10;;;;;;;6.97;1.48;;;;;;;11.52;100.00;100694.22;5018936;28;20129;-57
2022/10/29 06:40:36;;;;;;;7.40;1.05;;;;;;;11.58;100.00;100696.09;5019897;28;20029;-58
2022/10/29 06:43:06;;;;;;;7.75;1.83;;;;;;;11.64;100.00;100691.00;5018960;28;20029;-58
2022/10/29 06:45:33;;;;;;;10.82;1.33;;;;;;;11.64;100.00;100694.50;5017193;28;20570;-58
2022/10/29 06:47:58;;;;;;;9.02;1.42;;;;;;;11.71;100.00;100692.72;5018631;28;20062;-56
2022/10/29 06:50:24;;;;;;;9.25;2.25;;;;;;;11.72;100.00;100702.34;5028306;28;20467;-55
2022/10/29 06:53:03;;;;;;;4.32;2.35;;;;;;;11.72;100.00;100696.19;5026435;28;20029;-56
2022/10/29 06:55:29;;;;;;;4.20;1.38;;;;;;;11.73;100.00;100713.78;5038631;28;20033;-54
2022/10/29 06:58:05;;;;;;;9.77;1.85;;;;;;;11.78;100.00;100708.72;5037110;28;20109;-58
2022/10/29 07:00:32;;;;;;;4.45;0.90;;;;;;;11.76;100.00;100698.25;5041026;28;20024;-58
2022/10/29 07:02:58;;;;;;;5.40;1.05;;;;;;;11.75;100.00;100695.81;5043816;28;20033;-59
2022/10/29 07:05:23;;;;;;;12.90;3.08;;;;;;;11.76;100.00;100692.13;5039707;28;20348;-59
2022/10/29 07:07:57;;;;;;;6.35;1.75;;;;;;;11.84;100.00;100684.00;5041191;28;20029;-57
2022/10/29 07:10:23;;;;;;;3.72;0.73;;;;;;;11.86;100.00;100686.50;5039285;28;20025;-55
2022/10/29 07:12:48;;;;;;;3.83;0.90;;;;;;;11.85;100.00;100688.31;5040954;28;20374;-55
2022/10/29 07:15:14;;;;;;;2.25;0.75;;;;;;;11.88;100.00;100679.19;5039679;28;20025;-58
2022/10/29 07:17:39;;;;;;;6.00;2.67;;;;;;;11.88;100.00;100685.31;5038504;28;20082;-58
2022/10/29 07:20:06;;;;;;;2.08;1.15;;;;;;;11.91;100.00;100684.91;5039175;28;20036;-58
2022/10/29 07:22:32;;;;;;;5.68;1.10;;;;;;;11.93;100.00;100693.50;5037352;28;20041;-58
2022/10/29 07:24:58;;;;;;;8.57;1.10;;;;;;;11.95;100.00;100683.53;5043682;28;20501;-55
2022/10/29 07:27:23;;;;;;;12.23;2.58;;;;;;;11.95;100.00;100688.84;5042567;28;20035;-53
2022/10/29 07:29:48;;;;;;;2.67;1.75;;;;;;;11.95;100.00;100680.88;5035121;28;20419;-58
2022/10/29 07:32:14;;;;;;;3.30;1.23;;;;;;;11.96;100.00;100693.13;5041284;28;20036;-54
2022/10/29 07:34:40;;;;;;;4.95;1.70;;;;;;;12.05;100.00;100693.78;5034554;28;20463;-58
2022/10/29 07:37:05;;;;;;;3.15;0.75;;;;;;;12.08;100.00;100690.75;5040225;28;20140;-58
2022/10/29 07:39:30;;;;;;;3.30;0.80;;;;;;;12.09;100.00;100675.63;5035490;28;20056;-59
2022/10/29 07:41:56;;;;;;;12.45;1.77;;;;;;;12.12;100.00;100692.00;5043627;28;20119;-56
2022/10/29 07:44:21;;;;;;;6.07;1.80;;;;;;;12.14;100.00;100699.78;5032967;28;20158;-56
2022/10/29 07:46:46;;;;;;;6.38;0.82;;;;;;;12.15;100.00;100706.72;5030691;28;20426;-54
2022/10/29 07:49:12;;;;;;;7.70;1.73;;;;;;;12.17;100.00;100700.19;5029603;28;20497;-57
2022/10/29 07:51:37;;;;;;;6.63;1.05;;;;;;;12.21;100.00;100704.13;5036096;28;20041;-56
2022/10/29 07:54:03;;;;;;;6.25;2.22;;;;;;;12.28;100.00;100704.13;5036722;28;20037;-56
2022/10/29 07:56:28;;;;;;;5.85;1.27;;;;;;;12.29;100.00;100699.63;5030213;28;20033;-56
2022/10/29 07:58:54;;;;;;;11.80;2.63;;;;;;;12.24;100.00;100702.91;5031489;28;20041;-57
2022/10/29 08:01:19;;;;;;;8.75;1.77;;;;;;;12.26;100.00;100716.78;5036771;28;20044;-59
2022/10/29 08:03:44;;;;;;;13.00;2.13;;;;;;;12.32;100.00;100713.38;5037532;28;20121;-56
2022/10/29 08:06:09;;;;;;;2.28;0.88;;;;;;;12.35;100.00;100712.16;5041418;28;20435;-57
2022/10/29 08:08:35;;;;;;;10.38;2.15;;;;;;;12.39;100.00;100724.88;5028406;28;20047;-59
2022/10/29 08:11:02;;;;;;;11.05;1.05;;;;;;;12.46;100.00;100710.78;5021236;28;20104;-59
2022/10/29 08:13:27;;;;;;;3.65;1.00;;;;;;;12.50;100.00;100712.84;5024906;28;20581;-59
2022/10/29 08:15:53;;;;;;;5.55;1.27;;;;;;;12.56;100.00;100705.91;5030702;28;20104;-56
2022/10/29 08:18:18;;;;;;;5.57;1.48;;;;;;;12.58;100.00;100715.34;5032055;28;20033;-58
2022/10/29 08:20:44;;;;;;;5.88;1.27;;;;;;;12.58;100.00;100712.66;5025738;28;20030;-59
2022/10/29 08:23:10;;;;;;;8.23;1.60;;;;;;;12.62;100.00;100707.75;5032695;28;20039;-59
2022/10/29 08:25:41;;;;;;;9.38;2.03;;;;;;;12.65;100.00;100688.78;5018384;28;20521;-58
2022/10/29 08:28:11;;;;;;;;;;;;;;;12.70;100.00;100689.00;5026004;28;20388;-58
2022/10/29 08:30:37;;;;;;;4.00;0.60;;;;;;;12.74;100.00;100706.19;5030175;28;20000;-53
2022/10/29 08:33:04;;;;;;;3.38;1.70;;;;;;;12.78;100.00;100686.16;5028760;28;20049;-58
2022/10/29 08:35:31;;;;;;;3.85;1.23;;;;;;;12.83;100.00;100710.31;5027819;28;20083;-57
2022/10/29 08:37:56;;;;;;;9.25;1.75;;;;;;;12.88;100.00;100701.72;5031008;28;20021;-58
2022/10/29 08:40:54;;;;;;;5.85;2.13;;;;;;;12.95;100.00;100701.72;5032228;28;20017;-58
2022/10/29 08:43:50;;;;;;;6.97;1.33;;;;;;;12.98;100.00;100706.66;5033835;28;20393;-58
2022/10/29 08:46:31;;;;;;;7.90;2.15;;;;;;;13.01;100.00;100690.28;5031618;28;20139;-57
2022/10/29 08:49:02;;;;;;;2.53;1.27;;;;;;;13.07;100.00;100694.81;5025783;28;20060;-58
2022/10/29 08:51:35;;;;;;;2.65;1.40;;;;;;;13.14;100.00;100692.97;5030411;28;20040;-58
2022/10/29 08:54:01;;;;;;;4.03;2.15;;;;;;;13.17;100.00;100689.09;5029831;28;20369;-57
2022/10/29 08:56:37;;;;;;;6.53;2.85;;;;;;;13.20;100.00;100681.50;5025519;28;20120;-57
2022/10/29 08:59:10;;;;;;;8.50;1.70;;;;;;;13.27;100.00;100684.22;5026565;28;20044;-57
2022/10/29 09:01:36;;;;;;;8.00;3.10;;;;;;;13.33;100.00;100682.59;5025999;28;20037;-57
2022/10/29 09:04:04;;;;;;;3.42;1.60;;;;;;;13.41;100.00;100675.19;5024906;28;21224;-55
2022/10/29 09:06:47;;;;;;;4.72;1.60;;;;;;;13.49;100.00;100680.31;5025957;28;20029;-55
2022/10/29 09:09:23;;;;;;;7.60;2.00;;;;;;;13.58;100.00;100691.59;5023134;28;20049;-55
2022/10/29 09:12:10;;;;;;;5.40;2.40;;;;;;;13.66;100.00;100679.91;5026234;28;20038;-57
2022/10/29 09:14:44;;;;;;;6.55;3.00;;;;;;;13.71;100.00;100675.59;5033269;28;20123;-58
2022/10/29 09:17:37;;;;;;;5.93;1.40;;;;;;;13.86;100.00;100675.38;5032715;28;20438;-58
2022/10/29 09:20:29;;;;;;;6.03;2.10;;;;;;;14.06;100.00;100687.84;5031185;28;20112;-55
2022/10/29 09:22:57;;;;;;;8.35;2.83;;;;;;;14.22;100.00;100682.03;5027921;28;20107;-57
2022/10/29 09:26:00;;;;;;;8.38;1.50;;;;;;;14.36;100.00;100678.31;5027829;28;20113;-55
2022/10/29 09:29:16;;;;;;;6.28;2.10;;;;;;;14.49;100.00;100673.97;5028065;28;20592;-57
2022/10/29 09:31:47;;;;;;;5.47;1.73;;;;;;;14.56;100.00;100682.75;5025621;28;20324;-57
2022/10/29 09:34:31;;;;;;;;;;;;;;;14.60;100.00;100673.31;5029352;28;20033;-60
2022/10/29 09:36:58;;;;;;;3.47;1.58;;;;;;;14.61;100.00;100681.13;5035539;28;19917;-56
2022/10/29 09:39:38;;;;;;;14.65;2.60;;;;;;;14.74;100.00;100677.56;5027024;28;20051;-52
2022/10/29 09:42:14;;;;;;;3.28;1.40;;;;;;;14.83;100.00;100684.28;5028389;28;20032;-56
2022/10/29 09:44:49;;;;;;;8.82;2.03;;;;;;;14.88;100.00;100683.66;5026418;28;20183;-55
2022/10/29 09:47:38;;;;;;;10.40;2.63;;;;;;;15.05;100.00;100682.09;5029453;28;20045;-56
2022/10/29 09:50:04;;;;;;;8.85;2.25;;;;;;;15.14;100.00;100696.00;5026261;28;20110;-55
2022/10/29 09:52:34;;;;;;;7.68;2.10;;;;;;;15.17;100.00;100679.53;5027729;28;20041;-54
2022/10/29 09:55:01;;;;;;;6.43;1.25;;;;;;;15.23;100.00;100673.34;5028022;28;20535;-54
2022/10/29 09:57:29;;;;;;;9.85;4.00;;;;;;;15.29;100.00;100666.31;5027264;28;20493;-55
2022/10/29 10:00:12;;;;;;;6.10;1.40;;;;;;;15.39;100.00;100671.19;5032129;28;20483;-57
2022/10/29 10:02:43;;;;;;;11.73;3.53;;;;;;;15.59;100.00;100669.16;5028120;28;20064;-55
2022/10/29 10:05:11;;;;;;;6.30;1.70;;;;;;;15.75;100.00;100665.13;5032380;28;20025;-54
2022/10/29 10:07:37;;;;;;;3.47;2.13;;;;;;;15.86;100.00;100660.91;5030303;28;20025;-59
2022/10/29 10:10:05;;;;;;;6.03;2.85;;;;;;;15.86;100.00;100652.88;5031354;28;20036;-58
2022/10/29 10:12:36;;;;;;;6.57;1.60;;;;;;;15.88;100.00;100642.78;5039494;28;20037;-58
2022/10/29 10:15:03;;;;;;;;;;;;;;;15.95;100.00;100637.38;5042716;28;20029;-59
2022/10/29 10:18:12;;;;;;;4.70;1.65;;;;;;;16.05;100.00;100645.69;5046125;28;20267;-56
2022/10/29 10:20:40;;;;;;;5.45;1.67;;;;;;;16.10;100.00;100641.28;5028647;28;20156;-55
2022/10/29 10:23:45;;;;;;;11.15;2.90;;;;;;;16.23;100.00;100629.63;5030519;28;20024;-56
2022/10/29 10:26:34;;;;;;;6.28;3.45;;;;;;;16.34;100.00;100636.06;5028341;28;20048;-53
2022/10/29 10:29:21;;;;;;;5.60;1.42;;;;;;;16.47;100.00;100627.06;5031221;28;20098;-57
2022/10/29 10:31:47;;;;;;;7.78;1.55;;;;;;;16.47;100.00;100625.22;5032142;28;20061;-57
2022/10/29 10:34:14;;;;;;;9.07;2.78;;;;;;;16.44;100.00;100614.94;5032250;28;20124;-55
2022/10/29 10:36:43;;;;;;;9.38;3.42;;;;;;;16.41;100.00;100627.97;5028808;28;20069;-59
2022/10/29 10:39:23;;;;;;;11.20;3.00;;;;;;;16.36;100.00;100617.94;5030314;28;20448;-58
2022/10/29 10:41:50;;;;;;;9.38;2.78;;;;;;;16.28;100.00;100611.03;5029870;28;20068;-55
2022/10/29 10:44:18;;;;;;;6.13;2.47;;;;;;;16.29;100.00;100615.38;5034930;28;20448;-58
2022/10/29 10:46:44;;;;;;;9.15;2.80;;;;;;;16.31;100.00;100610.59;5030498;28;20034;-57
2022/10/29 10:49:37;;;;;;;6.25;2.25;;;;;;;16.40;100.00;100618.31;5030447;28;20041;-52
2022/10/29 10:52:12;;;;;;;11.45;2.53;;;;;;;16.47;100.00;100619.88;5027075;28;20049;-51
2022/10/29 10:54:46;;;;;;;6.32;1.90;;;;;;;16.53;100.00;100623.50;5029809;28;20033;-56
2022/10/29 10:57:11;;;;;;;5.05;1.55;;;;;;;16.56;100.00;100618.50;5026845;28;20043;-55
2022/10/29 10:59:43;;;;;;;7.80;1.65;;;;;;;16.65;100.00;100612.81;5031319;28;20418;-59
2022/10/29 11:02:27;;;;;;;8.63;3.47;;;;;;;16.65;100.00;100605.63;5030515;28;20031;-55
2022/10/29 11:05:01;;;;;;;5.57;2.58;;;;;;;16.68;100.00;100605.16;5033447;28;20386;-55
2022/10/29 11:07:37;;;;;;;6.65;3.30;;;;;;;16.76;100.00;100609.38;5036047;28;20052;-57
2022/10/29 11:10:05;;;;;;;11.45;2.05;;;;;;;16.81;100.00;100603.38;5035888;28;20523;-56
2022/10/29 11:12:45;;;;;;;7.28;2.78;;;;;;;16.89;100.00;100608.38;5023980;28;20033;-58
2022/10/29 11:15:30;;;;;;;10.68;2.15;;;;;;;16.99;100.00;100604.09;5024814;28;20032;-53
2022/10/29 11:18:06;;;;;;;8.75;2.47;;;;;;;17.11;100.00;100590.72;5033016;28;20033;-57
2022/10/29 11:20:35;;;;;;;8.13;2.25;;;;;;;17.32;100.00;100580.47;5034146;28;20734;-58
2022/10/29 11:23:23;;;;;;;5.63;2.65;;;;;;;17.68;100.00;100560.63;5039452;28;20698;-57
2022/10/29 11:26:12;;;;;;;4.65;1.98;;;;;;;17.78;100.00;100544.75;5035455;28;20437;-55
2022/10/29 11:28:51;;;;;;;8.73;1.98;;;;;;;17.66;100.00;100531.38;5030183;28;20053;-52
2022/10/29 11:31:24;;;;;;;6.03;1.85;;;;;;;17.73;100.00;100515.16;5034858;28;20163;-59